createdAt,value
2017-09-21T00:00:39.535Z,52.33
2017-09-21T00:01:49.208Z,52.42
2017-09-21T00:02:58.820Z,52.33
2017-09-21T00:04:07.800Z,52.81
2017-09-21T00:05:17.102Z,52.52
2017-09-21T00:06:26.088Z,52.81
2017-09-21T00:07:35.397Z,52.91
2017-09-21T00:08:44.691Z,52.81
2017-09-21T00:09:54.299Z,52.42
2017-09-21T00:11:03.267Z,52.61
2017-09-21T00:12:12.872Z,52.81
2017-09-21T00:13:21.862Z,52.81
2017-09-21T00:14:31.475Z,52.52
2017-09-21T00:15:40.788Z,52.61
2017-09-21T00:16:50.072Z,52.71
2017-09-21T00:17:59.052Z,52.61
2017-09-21T00:19:08.043Z,52.61
2017-09-21T00:20:17.706Z,52.71
2017-09-21T00:21:26.365Z,52.52
2017-09-21T00:22:35.987Z,52.61
2017-09-21T00:23:44.654Z,52.42
2017-09-21T00:24:54.264Z,52.42
2017-09-21T00:26:03.234Z,52.71
2017-09-21T00:27:12.252Z,52.71
2017-09-21T00:28:21.839Z,52.61
2017-09-21T00:29:30.887Z,52.61
2017-09-21T00:30:39.875Z,52.52
2017-09-21T00:31:49.153Z,52.61
2017-09-21T00:32:58.431Z,52.42
2017-09-21T00:34:07.081Z,52.52
2017-09-21T00:35:15.737Z,52.61
2017-09-21T00:36:24.399Z,52.52
2017-09-21T00:37:33.704Z,52.71
2017-09-21T00:38:43.047Z,52.52
2017-09-21T00:39:52.665Z,52.71
2017-09-21T00:41:02.291Z,52.52
2017-09-21T00:42:11.596Z,52.42
2017-09-21T00:43:20.575Z,52.52
2017-09-21T00:44:30.517Z,52.52
2017-09-21T00:45:39.805Z,52.91
2017-09-21T00:46:48.466Z,52.33
2017-09-21T00:47:57.447Z,52.61
2017-09-21T00:49:06.750Z,52.81
2017-09-21T00:50:15.424Z,52.61
2017-09-21T00:51:24.723Z,52.71
2017-09-21T00:52:34.037Z,52.81
2017-09-21T00:53:43.666Z,52.91
2017-09-21T00:54:52.949Z,52.81
2017-09-21T00:56:01.927Z,52.61
2017-09-21T00:57:10.905Z,52.81
2017-09-21T00:58:19.569Z,52.81
2017-09-21T00:59:28.860Z,52.81
2017-09-21T01:00:37.534Z,52.91
2017-09-21T01:01:46.824Z,52.42
2017-09-21T01:02:56.139Z,52.81
2017-09-21T01:04:05.753Z,52.61
2017-09-21T01:05:15.069Z,52.81
2017-09-21T01:06:24.041Z,52.91
2017-09-21T01:07:33.330Z,53.39
2017-09-21T01:08:42.314Z,53.39
2017-09-21T01:09:51.291Z,53.39
2017-09-21T01:11:00.297Z,53.29
2017-09-21T01:12:08.972Z,53
2017-09-21T01:13:18.285Z,53.29
2017-09-21T01:14:27.284Z,53.29
2017-09-21T01:15:36.892Z,53.39
2017-09-21T01:16:45.605Z,53.39
2017-09-21T01:17:54.288Z,53.19
2017-09-21T01:19:03.280Z,53.29
2017-09-21T01:20:12.569Z,53.39
2017-09-21T01:21:21.874Z,52.42
2017-09-21T01:22:31.181Z,53.19
2017-09-21T01:23:40.176Z,53.19
2017-09-21T01:24:48.826Z,53.29
2017-09-21T01:25:57.502Z,53.29
2017-09-21T01:27:07.106Z,53.29
2017-09-21T01:28:16.401Z,52.52
2017-09-21T01:29:25.423Z,53.19
2017-09-21T01:30:34.717Z,53.29
2017-09-21T01:31:43.693Z,53.19
2017-09-21T01:32:52.973Z,52.52
2017-09-21T01:34:01.654Z,52.52
2017-09-21T01:35:10.945Z,53
2017-09-21T01:36:20.234Z,52.91
2017-09-21T01:37:29.216Z,53.29
2017-09-21T01:38:38.500Z,52.91
2017-09-21T01:39:47.802Z,53
2017-09-21T01:40:56.796Z,53
2017-09-21T01:42:05.462Z,53.09
2017-09-21T01:43:14.752Z,53
2017-09-21T01:44:23.727Z,53
2017-09-21T01:45:32.416Z,53
2017-09-21T01:46:41.396Z,53
2017-09-21T01:47:50.373Z,53
2017-09-21T01:48:59.664Z,53.29
2017-09-21T01:50:08.960Z,53.19
2017-09-21T01:51:18.024Z,53.09
2017-09-21T01:52:27.678Z,53
2017-09-21T01:53:36.364Z,53
2017-09-21T01:54:45.341Z,53.19
2017-09-21T01:55:54.318Z,53.09
2017-09-21T01:57:03.292Z,53
2017-09-21T01:58:11.990Z,53.09
2017-09-21T01:59:21.712Z,53.19
2017-09-21T02:00:30.697Z,53.19
2017-09-21T02:01:39.991Z,53.19
2017-09-21T02:02:48.983Z,53.19
2017-09-21T02:03:57.649Z,53
2017-09-21T02:05:06.627Z,53.09
2017-09-21T02:06:15.326Z,53.09
2017-09-21T02:07:24.021Z,53.19
2017-09-21T02:08:32.676Z,53.09
2017-09-21T02:09:42.303Z,53.09
2017-09-21T02:10:51.605Z,52.81
2017-09-21T02:12:00.970Z,53.09
2017-09-21T02:13:09.634Z,53.19
2017-09-21T02:14:18.625Z,53.09
2017-09-21T02:15:27.905Z,53.19
2017-09-21T02:16:36.941Z,53.09
2017-09-21T02:17:45.603Z,53.19
2017-09-21T02:18:54.270Z,53.09
2017-09-21T02:20:03.239Z,53.09
2017-09-21T02:21:11.900Z,53.07
2017-09-21T02:22:21.578Z,53.19
2017-09-21T02:23:30.857Z,53.09
2017-09-21T02:24:39.850Z,53.09
2017-09-21T02:25:48.831Z,53.19
2017-09-21T02:26:57.501Z,53
2017-09-21T02:28:06.807Z,53.09
2017-09-21T02:29:16.133Z,53.09
2017-09-21T02:30:25.427Z,53.09
2017-09-21T02:31:34.114Z,53.09
2017-09-21T02:32:43.108Z,53.19
2017-09-21T02:33:52.094Z,53
2017-09-21T02:35:00.755Z,53.09
2017-09-21T02:36:09.415Z,53
2017-09-21T02:37:18.717Z,53.09
2017-09-21T02:38:27.706Z,53.09
2017-09-21T02:39:36.364Z,53.09
2017-09-21T02:40:45.691Z,53.09
2017-09-21T02:41:54.350Z,53.09
2017-09-21T02:43:03.653Z,53.19
2017-09-21T02:44:12.322Z,53.09
2017-09-21T02:45:21.632Z,53.09
2017-09-21T02:46:30.607Z,52.97
2017-09-21T02:47:39.905Z,53.09
2017-09-21T02:48:48.923Z,53.09
2017-09-21T02:49:58.522Z,53.09
2017-09-21T02:51:07.622Z,53.19
2017-09-21T02:52:16.596Z,53.07
2017-09-21T02:53:25.944Z,53.07
2017-09-21T02:54:34.612Z,53.09
2017-09-21T02:55:43.289Z,53.09
2017-09-21T02:56:52.581Z,53.17
2017-09-21T02:58:01.871Z,53.07
2017-09-21T02:59:10.538Z,53.07
2017-09-21T03:00:19.861Z,53
2017-09-21T03:01:28.875Z,53
2017-09-21T03:02:37.875Z,53.17
2017-09-21T03:03:47.185Z,52.97
2017-09-21T03:04:56.491Z,53.09
2017-09-21T03:06:05.474Z,53.09
2017-09-21T03:07:14.145Z,53.09
2017-09-21T03:08:23.121Z,53.07
2017-09-21T03:09:32.730Z,52.97
2017-09-21T03:10:41.743Z,52.78
2017-09-21T03:11:50.756Z,53.07
2017-09-21T03:12:59.722Z,52.97
2017-09-21T03:14:09.022Z,53.19
2017-09-21T03:15:18.374Z,53.17
2017-09-21T03:16:27.666Z,53.17
2017-09-21T03:17:36.339Z,53.07
2017-09-21T03:18:45.032Z,53.09
2017-09-21T03:19:54.033Z,53.07
2017-09-21T03:21:02.696Z,53
2017-09-21T03:22:11.384Z,53
2017-09-21T03:23:20.359Z,53.17
2017-09-21T03:24:29.341Z,52.97
2017-09-21T03:25:38.069Z,53.07
2017-09-21T03:26:47.374Z,53.19
2017-09-21T03:27:56.050Z,53.19
2017-09-21T03:29:05.058Z,53.17
2017-09-21T03:30:14.042Z,53.07
2017-09-21T03:31:22.713Z,53.19
2017-09-21T03:32:32.311Z,53
2017-09-21T03:33:40.974Z,53.07
2017-09-21T03:34:49.626Z,52.97
2017-09-21T03:35:58.906Z,53.09
2017-09-21T03:37:08.506Z,53.19
2017-09-21T03:38:17.486Z,53.17
2017-09-21T03:39:27.085Z,53.07
2017-09-21T03:40:36.379Z,53.17
2017-09-21T03:41:45.355Z,52.97
2017-09-21T03:42:54.364Z,52.97
2017-09-21T03:44:03.677Z,52.97
2017-09-21T03:45:13.001Z,53.17
2017-09-21T03:46:21.997Z,53.07
2017-09-21T03:47:30.983Z,53.07
2017-09-21T03:48:40.276Z,53.07
2017-09-21T03:49:49.332Z,52.87
2017-09-21T03:50:57.992Z,53.17
2017-09-21T03:52:07.927Z,53.07
2017-09-21T03:53:16.595Z,53.07
2017-09-21T03:54:25.246Z,52.97
2017-09-21T03:55:34.858Z,53.17
2017-09-21T03:56:43.563Z,53.07
2017-09-21T03:57:52.853Z,53.07
2017-09-21T03:59:01.521Z,53.07
2017-09-21T04:00:10.490Z,53.07
2017-09-21T04:01:19.807Z,53.17
2017-09-21T04:02:29.090Z,52.97
2017-09-21T04:03:38.388Z,53.07
2017-09-21T04:04:47.370Z,53.17
2017-09-21T04:05:56.677Z,53.17
2017-09-21T04:07:05.964Z,53.17
2017-09-21T04:08:15.283Z,53.07
2017-09-21T04:09:24.308Z,53.17
2017-09-21T04:10:33.606Z,53.17
2017-09-21T04:11:42.902Z,53.07
2017-09-21T04:12:51.908Z,53.17
2017-09-21T04:14:00.886Z,53.19
2017-09-21T04:15:09.881Z,53.17
2017-09-21T04:16:18.924Z,53.17
2017-09-21T04:17:28.228Z,53.27
2017-09-21T04:18:37.217Z,52.97
2017-09-21T04:19:46.250Z,52.69
2017-09-21T04:20:54.917Z,52.97
2017-09-21T04:22:03.936Z,53.17
2017-09-21T04:23:13.237Z,53.17
2017-09-21T04:24:22.275Z,53.17
2017-09-21T04:25:31.247Z,53.17
2017-09-21T04:26:39.961Z,52.69
2017-09-21T04:27:49.285Z,52.59
2017-09-21T04:28:57.942Z,53.07
2017-09-21T04:30:07.249Z,53.17
2017-09-21T04:31:16.236Z,53.17
2017-09-21T04:32:25.223Z,53.17
2017-09-21T04:33:34.217Z,52.97
2017-09-21T04:34:43.194Z,53.17
2017-09-21T04:35:51.849Z,53.17
2017-09-21T04:37:00.507Z,53.07
2017-09-21T04:38:09.806Z,52.97
2017-09-21T04:39:19.423Z,52.87
2017-09-21T04:40:28.726Z,52.87
2017-09-21T04:41:37.470Z,52.97
2017-09-21T04:42:46.493Z,52.87
2017-09-21T04:43:55.152Z,52.97
2017-09-21T04:45:04.470Z,53.27
2017-09-21T04:46:13.443Z,53.17
2017-09-21T04:47:22.461Z,52.69
2017-09-21T04:48:31.437Z,53.27
2017-09-21T04:49:40.456Z,52.69
2017-09-21T04:51:02.231Z,52.97
2017-09-21T04:52:11.222Z,53.27
2017-09-21T04:53:20.811Z,53.17
2017-09-21T04:54:30.114Z,52.87
2017-09-21T04:55:39.413Z,53.17
2017-09-21T04:56:48.377Z,53.17
2017-09-21T04:57:57.022Z,53.27
2017-09-21T04:59:05.851Z,53.17
2017-09-21T05:00:14.836Z,53.36
2017-09-21T05:01:23.831Z,53.27
2017-09-21T05:02:33.744Z,53.27
2017-09-21T05:03:42.416Z,53.07
2017-09-21T05:04:51.068Z,53.27
2017-09-21T05:06:00.116Z,53.27
2017-09-21T05:07:09.101Z,53.27
2017-09-21T05:08:18.695Z,53.27
2017-09-21T05:09:27.682Z,52.49
2017-09-21T05:10:37.082Z,53.27
2017-09-21T05:11:45.760Z,53.27
2017-09-21T05:12:54.732Z,52.49
2017-09-21T05:14:03.705Z,52.49
2017-09-21T05:15:12.360Z,52.87
2017-09-21T05:16:21.358Z,52.49
2017-09-21T05:17:30.018Z,52.87
2017-09-21T05:18:39.345Z,52.78
2017-09-21T05:19:48.342Z,52.78
2017-09-21T05:20:57.480Z,52.78
2017-09-21T05:22:06.440Z,52.4
2017-09-21T05:23:16.051Z,52.59
2017-09-21T05:24:24.833Z,52.49
2017-09-21T05:25:34.431Z,52.87
2017-09-21T05:26:43.734Z,52.69
2017-09-21T05:27:52.886Z,52.49
2017-09-21T05:29:01.912Z,52.4
2017-09-21T05:30:10.595Z,52.49
2017-09-21T05:31:19.578Z,52.61
2017-09-21T05:32:28.600Z,52.61
2017-09-21T05:33:37.669Z,52.61
2017-09-21T05:34:46.669Z,52.97
2017-09-21T05:35:55.650Z,52.81
2017-09-21T05:37:05.261Z,52.42
2017-09-21T05:38:13.924Z,52.33
2017-09-21T05:39:22.773Z,52.33
2017-09-21T05:40:31.747Z,52.52
2017-09-21T05:41:41.037Z,52.23
2017-09-21T05:42:50.067Z,52.42
2017-09-21T05:43:59.064Z,52.52
2017-09-21T05:45:07.894Z,52.61
2017-09-21T05:46:16.734Z,52.71
2017-09-21T05:47:26.105Z,52.52
2017-09-21T05:48:35.124Z,52.13
2017-09-21T05:49:44.398Z,52.33
2017-09-21T05:50:53.722Z,52.04
2017-09-21T05:52:02.375Z,52.13
2017-09-21T05:53:11.661Z,52.04
2017-09-21T05:54:20.641Z,52.04
2017-09-21T05:55:30.053Z,52.13
2017-09-21T05:56:39.357Z,51.94
2017-09-21T05:57:48.317Z,51.94
2017-09-21T05:58:57.293Z,51.94
2017-09-21T06:00:05.997Z,52.04
2017-09-21T06:01:15.327Z,52.13
2017-09-21T06:02:24.770Z,52.52
2017-09-21T06:03:33.416Z,52.61
2017-09-21T06:04:42.441Z,52.52
2017-09-21T06:05:51.418Z,52.61
2017-09-21T06:07:00.087Z,52.61
2017-09-21T06:08:09.203Z,52.23
2017-09-21T06:09:17.859Z,52.42
2017-09-21T06:10:27.185Z,52.23
2017-09-21T06:11:35.991Z,52.33
2017-09-21T06:12:44.687Z,52.23
2017-09-21T06:13:53.805Z,52.33
2017-09-21T06:15:02.783Z,52.23
2017-09-21T06:16:11.508Z,52.23
2017-09-21T06:17:20.198Z,52.23
2017-09-21T06:18:29.181Z,52.61
2017-09-21T06:19:38.128Z,52.42
2017-09-21T06:20:47.114Z,52.61
2017-09-21T06:21:56.092Z,52.52
2017-09-21T06:23:05.386Z,52.52
2017-09-21T06:24:14.361Z,52.52
2017-09-21T06:25:23.324Z,52.04
2017-09-21T06:26:32.003Z,52.04
2017-09-21T06:27:40.667Z,52.23
2017-09-21T06:28:49.331Z,52.04
2017-09-21T06:29:58.320Z,51.94
2017-09-21T06:31:08.032Z,52.04
2017-09-21T06:32:17.011Z,52.04
2017-09-21T06:33:26.397Z,52.23
2017-09-21T06:34:35.395Z,51.94
2017-09-21T06:35:44.105Z,52.04
2017-09-21T06:36:53.246Z,52.04
2017-09-21T06:38:02.274Z,51.56
2017-09-21T06:39:11.247Z,51.84
2017-09-21T06:40:19.968Z,51.84
2017-09-21T06:41:29.268Z,51.56
2017-09-21T06:42:38.891Z,51.56
2017-09-21T06:43:47.585Z,51.84
2017-09-21T06:44:56.926Z,51.65
2017-09-21T06:46:05.897Z,51.75
2017-09-21T06:47:15.179Z,51.94
2017-09-21T06:48:24.798Z,51.84
2017-09-21T06:49:33.770Z,51.56
2017-09-21T06:50:42.442Z,51.65
2017-09-21T06:51:51.096Z,51.84
2017-09-21T06:52:59.805Z,51.56
2017-09-21T06:54:09.136Z,51.46
2017-09-21T06:55:17.795Z,51.46
2017-09-21T06:56:27.421Z,51.46
2017-09-21T06:57:36.712Z,51.36
2017-09-21T06:58:46.004Z,51.75
2017-09-21T06:59:55.621Z,51.36
2017-09-21T07:01:04.922Z,51.65
2017-09-21T07:02:13.898Z,51.75
2017-09-21T07:03:22.551Z,51.94
2017-09-21T07:04:31.558Z,51.84
2017-09-21T07:05:41.324Z,51.65
2017-09-21T07:06:50.015Z,51.84
2017-09-21T07:07:59.621Z,51.84
2017-09-21T07:09:08.925Z,51.84
2017-09-21T07:10:17.917Z,51.84
2017-09-21T07:11:27.822Z,51.84
2017-09-21T07:12:36.861Z,51.97
2017-09-21T07:13:45.525Z,51.87
2017-09-21T07:14:54.542Z,51.65
2017-09-21T07:16:03.820Z,51.75
2017-09-21T07:17:13.093Z,51.68
2017-09-21T07:18:22.062Z,51.65
2017-09-21T07:19:30.716Z,51.65
2017-09-21T07:20:39.696Z,51.77
2017-09-21T07:21:48.368Z,51.77
2017-09-21T07:22:57.345Z,51.65
2017-09-21T07:24:06.656Z,51.84
2017-09-21T07:25:15.978Z,51.68
2017-09-21T07:26:24.745Z,51.68
2017-09-21T07:27:33.412Z,51.56
2017-09-21T07:28:42.864Z,51.58
2017-09-21T07:29:51.550Z,51.58
2017-09-21T07:31:00.518Z,51.87
2017-09-21T07:32:09.502Z,51.94
2017-09-21T07:33:19.103Z,51.65
2017-09-21T07:34:28.535Z,51.68
2017-09-21T07:35:37.202Z,51.75
2017-09-21T07:36:46.173Z,51.65
2017-09-21T07:37:54.855Z,51.68
2017-09-21T07:39:04.159Z,51.87
2017-09-21T07:40:13.148Z,51.84
2017-09-21T07:41:22.801Z,51.75
2017-09-21T07:42:31.847Z,51.77
2017-09-21T07:43:40.635Z,51.68
2017-09-21T07:44:50.294Z,51.75
2017-09-21T07:45:59.920Z,51.77
2017-09-21T07:47:08.637Z,51.68
2017-09-21T07:48:18.247Z,51.87
2017-09-21T07:49:27.234Z,51.48
2017-09-21T07:50:35.897Z,51.84
2017-09-21T07:51:45.046Z,51.58
2017-09-21T07:52:53.705Z,51.58
2017-09-21T07:54:02.689Z,51.87
2017-09-21T07:55:11.661Z,51.48
2017-09-21T07:56:20.630Z,51.68
2017-09-21T07:57:30.569Z,51.68
2017-09-21T07:58:39.280Z,51.68
2017-09-21T07:59:48.579Z,51.58
2017-09-21T08:00:57.637Z,51.58
2017-09-21T08:02:06.941Z,51.68
2017-09-21T08:03:16.022Z,51.68
2017-09-21T08:04:25.981Z,51.68
2017-09-21T08:05:35.258Z,51.97
2017-09-21T08:06:44.255Z,51.68
2017-09-21T08:07:52.892Z,51.58
2017-09-21T08:09:01.667Z,51.29
2017-09-21T08:10:10.971Z,51.48
2017-09-21T08:11:19.658Z,51.39
2017-09-21T08:12:28.308Z,51.39
2017-09-21T08:13:37.635Z,51.39
2017-09-21T08:14:46.303Z,51.29
2017-09-21T08:15:55.944Z,51.2
2017-09-21T08:17:04.630Z,51.1
2017-09-21T08:18:13.612Z,51.39
2017-09-21T08:19:23.221Z,51
2017-09-21T08:20:31.990Z,51.2
2017-09-21T08:21:40.968Z,51.2
2017-09-21T08:22:49.949Z,51.29
2017-09-21T08:23:58.921Z,51.39
2017-09-21T08:25:07.902Z,51.48
2017-09-21T08:26:16.874Z,51.39
2017-09-21T08:27:25.861Z,51.39
2017-09-21T08:28:34.830Z,51.39
2017-09-21T08:29:44.163Z,51.39
2017-09-21T08:30:53.469Z,51.29
2017-09-21T08:32:02.504Z,51.29
2017-09-21T08:33:11.815Z,51.36
2017-09-21T08:34:20.796Z,51.2
2017-09-21T08:35:30.095Z,51.29
2017-09-21T08:36:38.764Z,51.39
2017-09-21T08:37:48.233Z,51.29
2017-09-21T08:38:57.244Z,51.39
2017-09-21T08:40:06.208Z,51.2
2017-09-21T08:41:15.203Z,51.17
2017-09-21T08:42:23.870Z,51.2
2017-09-21T08:43:33.488Z,51.2
2017-09-21T08:44:42.474Z,51.29
2017-09-21T08:45:51.128Z,51.2
2017-09-21T08:47:00.463Z,51.29
2017-09-21T08:48:09.456Z,51.2
2017-09-21T08:49:18.593Z,51.2
2017-09-21T08:50:27.592Z,51.17
2017-09-21T08:51:36.570Z,51.39
2017-09-21T08:52:46.185Z,51.2
2017-09-21T08:53:55.559Z,51.36
2017-09-21T08:55:05.034Z,51.29
2017-09-21T08:56:14.329Z,51.2
2017-09-21T08:57:23.616Z,51.29
2017-09-21T08:58:32.671Z,51.39
2017-09-21T08:59:41.951Z,51.1
2017-09-21T09:00:51.113Z,50.81
2017-09-21T09:02:00.440Z,51.1
2017-09-21T09:03:09.440Z,51.1
2017-09-21T09:04:18.721Z,51.1
2017-09-21T09:05:27.717Z,51.2
2017-09-21T09:06:36.741Z,51
2017-09-21T09:07:45.703Z,51.1
2017-09-21T09:08:54.697Z,51
2017-09-21T09:10:03.671Z,51.1
2017-09-21T09:11:12.335Z,51.1
2017-09-21T09:12:21.619Z,51.2
2017-09-21T09:13:30.595Z,51
2017-09-21T09:14:39.902Z,51.1
2017-09-21T09:15:48.570Z,51.1
2017-09-21T09:16:57.544Z,51.29
2017-09-21T09:18:07.161Z,51.1
2017-09-21T09:19:16.495Z,51.2
2017-09-21T09:20:25.504Z,50.9
2017-09-21T09:21:35.121Z,50.9
2017-09-21T09:22:43.788Z,50.9
2017-09-21T09:23:52.596Z,50.81
2017-09-21T09:25:01.592Z,50.81
2017-09-21T09:26:10.258Z,50.81
2017-09-21T09:27:19.555Z,51.29
2017-09-21T09:28:28.536Z,50.81
2017-09-21T09:29:37.997Z,50.9
2017-09-21T09:30:46.986Z,50.81
2017-09-21T09:31:55.657Z,50.81
2017-09-21T09:33:04.361Z,50.9
2017-09-21T09:34:13.655Z,50.81
2017-09-21T09:35:22.622Z,51
2017-09-21T09:36:31.930Z,50.9
2017-09-21T09:37:40.897Z,50.9
2017-09-21T09:38:49.575Z,51.2
2017-09-21T09:39:58.898Z,51.2
2017-09-21T09:41:08.247Z,51.1
2017-09-21T09:42:17.246Z,51.1
2017-09-21T09:43:25.907Z,51.2
2017-09-21T09:44:34.898Z,51.1
2017-09-21T09:45:43.572Z,50.9
2017-09-21T09:46:52.394Z,50.9
2017-09-21T09:48:01.066Z,51.1
2017-09-21T09:49:10.043Z,50.9
2017-09-21T09:50:19.019Z,51.2
2017-09-21T09:51:27.677Z,51.29
2017-09-21T09:52:37.076Z,51.2
2017-09-21T09:53:46.048Z,51.1
2017-09-21T09:54:55.353Z,51.29
2017-09-21T09:56:04.661Z,51.1
2017-09-21T09:57:13.952Z,51.2
2017-09-21T09:58:23.240Z,51.29
2017-09-21T09:59:32.531Z,51.29
2017-09-21T10:00:41.510Z,51.29
2017-09-21T10:01:50.180Z,50.9
2017-09-21T10:02:59.498Z,51.29
2017-09-21T10:04:09.427Z,51.29
2017-09-21T10:05:18.403Z,51.29
2017-09-21T10:06:27.407Z,51.2
2017-09-21T10:07:36.698Z,51.1
2017-09-21T10:08:45.682Z,51.1
2017-09-21T10:09:54.827Z,51.2
2017-09-21T10:11:04.199Z,51.2
2017-09-21T10:12:13.488Z,51.1
2017-09-21T10:13:22.784Z,51.2
2017-09-21T10:14:31.799Z,51.29
2017-09-21T10:15:40.637Z,51.29
2017-09-21T10:16:49.614Z,51.29
2017-09-21T10:17:59.229Z,51.2
2017-09-21T10:19:08.208Z,51.29
2017-09-21T10:20:17.182Z,51.2
2017-09-21T10:21:26.320Z,51.2
2017-09-21T10:22:35.623Z,51.1
2017-09-21T10:23:44.276Z,51.1
2017-09-21T10:24:53.273Z,51.1
2017-09-21T10:26:02.275Z,51.2
2017-09-21T10:27:10.960Z,51.1
2017-09-21T10:28:19.608Z,51.2
2017-09-21T10:29:28.913Z,51.39
2017-09-21T10:30:38.238Z,51
2017-09-21T10:31:47.553Z,51.2
2017-09-21T10:32:56.217Z,51.2
2017-09-21T10:34:06.158Z,51.39
2017-09-21T10:35:15.442Z,51
2017-09-21T10:36:24.097Z,51.29
2017-09-21T10:37:33.396Z,51.1
2017-09-21T10:38:42.059Z,51.39
2017-09-21T10:39:51.341Z,51.29
2017-09-21T10:41:00.312Z,51.39
2017-09-21T10:42:09.029Z,51.2
2017-09-21T10:43:18.275Z,51.29
2017-09-21T10:44:28.216Z,51.1
2017-09-21T10:45:36.873Z,51.1
2017-09-21T10:46:45.845Z,51.1
2017-09-21T10:47:55.140Z,51.29
2017-09-21T10:49:04.441Z,51.1
2017-09-21T10:50:13.869Z,51.1
2017-09-21T10:51:22.862Z,51.1
2017-09-21T10:52:32.466Z,51.1
2017-09-21T10:53:41.778Z,51
2017-09-21T10:54:50.525Z,51.39
2017-09-21T10:55:59.977Z,51.29
2017-09-21T10:57:08.940Z,51.2
2017-09-21T10:58:18.868Z,51.1
2017-09-21T10:59:27.568Z,51.39
2017-09-21T11:00:36.235Z,51.1
2017-09-21T11:01:45.366Z,51.2
2017-09-21T11:02:54.681Z,51.1
2017-09-21T11:04:03.652Z,51
2017-09-21T11:05:13.291Z,51.1
2017-09-21T11:06:22.865Z,51.1
2017-09-21T11:07:31.933Z,51.1
2017-09-21T11:08:40.918Z,51.1
2017-09-21T11:09:50.215Z,51.1
2017-09-21T11:10:59.500Z,51.1
2017-09-21T11:12:09.112Z,50.9
2017-09-21T11:13:17.934Z,51
2017-09-21T11:14:27.868Z,51.2
2017-09-21T11:15:36.850Z,51.2
2017-09-21T11:16:46.145Z,50.9
2017-09-21T11:17:55.433Z,51.1
2017-09-21T11:19:04.094Z,51.1
2017-09-21T11:20:13.379Z,50.9
2017-09-21T11:21:22.055Z,51.1
2017-09-21T11:22:31.029Z,51.1
2017-09-21T11:23:39.691Z,51.2
2017-09-21T11:24:48.676Z,51.1
2017-09-21T11:25:57.667Z,51.1
2017-09-21T11:27:06.649Z,51.1
2017-09-21T11:28:15.312Z,51.1
2017-09-21T11:29:24.288Z,51.29
2017-09-21T11:30:33.740Z,51.1
2017-09-21T11:31:43.033Z,51.29
2017-09-21T11:32:51.686Z,51.1
2017-09-21T11:34:00.976Z,50.71
2017-09-21T11:35:10.263Z,51.1
2017-09-21T11:36:19.227Z,51.1
2017-09-21T11:37:28.509Z,51.1
2017-09-21T11:38:37.479Z,51
2017-09-21T11:39:46.789Z,50.71
2017-09-21T11:40:55.456Z,50.71
2017-09-21T11:42:04.903Z,50.71
2017-09-21T11:43:14.197Z,50.81
2017-09-21T11:44:23.493Z,50.81
2017-09-21T11:45:32.145Z,51.1
2017-09-21T11:46:40.798Z,50.71
2017-09-21T11:47:49.918Z,51
2017-09-21T11:48:59.202Z,50.71
2017-09-21T11:50:08.807Z,50.62
2017-09-21T11:51:17.788Z,50.62
2017-09-21T11:52:26.520Z,50.71
2017-09-21T11:53:35.483Z,50.62
2017-09-21T11:54:44.791Z,50.62
2017-09-21T11:55:53.767Z,50.71
2017-09-21T11:57:03.052Z,50.9
2017-09-21T11:58:12.661Z,50.81
2017-09-21T11:59:21.778Z,50.62
2017-09-21T12:00:30.442Z,50.71
2017-09-21T12:01:39.722Z,50.71
2017-09-21T12:02:48.703Z,50.71
2017-09-21T12:03:57.994Z,50.62
2017-09-21T12:05:06.987Z,50.62
2017-09-21T12:06:15.972Z,50.52
2017-09-21T12:07:24.946Z,50.81
2017-09-21T12:08:33.615Z,50.71
2017-09-21T12:09:42.594Z,50.81
2017-09-21T12:10:51.677Z,50.81
2017-09-21T12:12:00.973Z,50.62
2017-09-21T12:13:09.688Z,50.62
2017-09-21T12:14:18.663Z,50.62
2017-09-21T12:15:27.651Z,50.62
2017-09-21T12:16:36.638Z,50.71
2017-09-21T12:17:46.572Z,50.62
2017-09-21T12:18:55.549Z,50.74
2017-09-21T12:20:04.840Z,50.74
2017-09-21T12:21:14.128Z,50.74
2017-09-21T12:22:23.088Z,50.64
2017-09-21T12:23:32.070Z,50.54
2017-09-21T12:24:40.740Z,50.74
2017-09-21T12:25:50.035Z,50.74
2017-09-21T12:26:59.029Z,50.93
2017-09-21T12:28:08.646Z,50.93
2017-09-21T12:29:17.945Z,50.84
2017-09-21T12:30:26.917Z,50.84
2017-09-21T12:31:36.211Z,50.62
2017-09-21T12:32:45.199Z,50.74
2017-09-21T12:33:54.011Z,50.84
2017-09-21T12:35:03.321Z,50.74
2017-09-21T12:36:12.313Z,50.74
2017-09-21T12:37:20.992Z,50.74
2017-09-21T12:38:29.650Z,50.74
2017-09-21T12:39:38.720Z,50.74
2017-09-21T12:40:47.698Z,50.74
2017-09-21T12:41:56.986Z,50.64
2017-09-21T12:43:05.971Z,50.74
2017-09-21T12:44:14.625Z,50.74
2017-09-21T12:45:23.433Z,50.74
2017-09-21T12:46:32.408Z,50.64
2017-09-21T12:47:41.082Z,50.64
2017-09-21T12:48:50.365Z,50.74
2017-09-21T12:49:59.647Z,50.74
2017-09-21T12:51:08.470Z,50.74
2017-09-21T12:52:17.772Z,50.74
2017-09-21T12:53:26.434Z,50.74
2017-09-21T12:54:35.092Z,50.74
2017-09-21T12:55:44.061Z,50.74
2017-09-21T12:56:53.517Z,50.93
2017-09-21T12:58:03.125Z,50.74
2017-09-21T12:59:12.107Z,50.74
2017-09-21T13:00:20.789Z,50.64
2017-09-21T13:01:29.765Z,50.74
2017-09-21T13:02:38.578Z,50.64
2017-09-21T13:03:47.556Z,50.93
2017-09-21T13:04:56.841Z,50.74
2017-09-21T13:06:05.817Z,50.74
2017-09-21T13:07:14.782Z,50.84
2017-09-21T13:08:24.059Z,50.74
2017-09-21T13:09:33.056Z,50.74
2017-09-21T13:10:41.723Z,50.74
2017-09-21T13:11:51.022Z,50.64
2017-09-21T13:12:59.998Z,50.84
2017-09-21T13:14:10.041Z,50.84
2017-09-21T13:15:19.316Z,50.74
2017-09-21T13:16:28.614Z,50.74
2017-09-21T13:17:37.596Z,50.74
2017-09-21T13:18:46.269Z,50.64
2017-09-21T13:19:56.205Z,50.64
2017-09-21T13:21:05.538Z,50.74
2017-09-21T13:22:14.526Z,50.74
2017-09-21T13:23:23.185Z,50.74
2017-09-21T13:24:32.486Z,50.74
2017-09-21T13:25:41.600Z,50.74
2017-09-21T13:26:50.569Z,50.74
2017-09-21T13:27:59.965Z,50.64
2017-09-21T13:29:09.905Z,50.93
2017-09-21T13:30:18.555Z,50.64
2017-09-21T13:31:27.683Z,51.03
2017-09-21T13:32:36.336Z,50.93
2017-09-21T13:33:45.640Z,50.93
2017-09-21T13:34:54.304Z,50.84
2017-09-21T13:36:03.272Z,51.03
2017-09-21T13:37:12.656Z,50.64
2017-09-21T13:38:21.628Z,50.84
2017-09-21T13:39:30.307Z,50.74
2017-09-21T13:40:39.593Z,50.93
2017-09-21T13:41:48.576Z,50.84
2017-09-21T13:42:57.722Z,50.74
2017-09-21T13:44:06.694Z,50.54
2017-09-21T13:45:15.969Z,50.35
2017-09-21T13:46:25.256Z,50.74
2017-09-21T13:47:34.542Z,50.84
2017-09-21T13:48:43.973Z,50.74
2017-09-21T13:49:52.631Z,50.74
2017-09-21T13:51:01.922Z,50.64
2017-09-21T13:52:11.203Z,50.64
2017-09-21T13:53:19.918Z,50.74
2017-09-21T13:54:28.880Z,50.84
2017-09-21T13:55:38.164Z,50.64
2017-09-21T13:56:47.152Z,50.64
2017-09-21T13:57:56.453Z,50.26
2017-09-21T13:59:05.425Z,50.64
2017-09-21T14:00:14.711Z,50.35
2017-09-21T14:01:23.692Z,50.64
2017-09-21T14:02:33.363Z,50.54
2017-09-21T14:03:42.973Z,50.64
2017-09-21T14:04:51.966Z,50.54
2017-09-21T14:06:00.937Z,50.64
2017-09-21T14:07:09.928Z,50.93
2017-09-21T14:08:18.897Z,50.54
2017-09-21T14:09:28.504Z,50.64
2017-09-21T14:10:37.504Z,50.64
2017-09-21T14:11:46.171Z,50.64
2017-09-21T14:12:55.169Z,50.54
2017-09-21T14:14:03.825Z,50.54
2017-09-21T14:15:12.488Z,50.54
2017-09-21T14:16:21.486Z,50.26
2017-09-21T14:17:30.758Z,50.54
2017-09-21T14:18:40.053Z,50.35
2017-09-21T14:19:50.299Z,50.64
2017-09-21T14:20:59.270Z,50.54
2017-09-21T14:22:07.976Z,50.93
2017-09-21T14:23:17.272Z,50.64
2017-09-21T14:24:26.248Z,50.64
2017-09-21T14:25:35.237Z,50.26
2017-09-21T14:26:44.529Z,50.93
2017-09-21T14:27:53.559Z,50.64
2017-09-21T14:29:02.544Z,50.64
2017-09-21T14:30:11.852Z,50.54
2017-09-21T14:31:21.124Z,50.54
2017-09-21T14:32:30.401Z,50.93
2017-09-21T14:33:39.409Z,50.54
2017-09-21T14:34:49.335Z,50.84
2017-09-21T14:35:58.641Z,50.84
2017-09-21T14:37:07.952Z,50.26
2017-09-21T14:38:17.561Z,50.74
2017-09-21T14:39:26.246Z,50.54
2017-09-21T14:40:35.212Z,50.84
2017-09-21T14:41:43.906Z,50.64
2017-09-21T14:42:52.572Z,50.54
2017-09-21T14:44:01.234Z,50.64
2017-09-21T14:45:10.214Z,50.64
2017-09-21T14:46:19.660Z,50.54
2017-09-21T14:47:28.976Z,50.93
2017-09-21T14:48:38.258Z,50.93
2017-09-21T14:49:47.547Z,50.84
2017-09-21T14:50:56.918Z,50.64
2017-09-21T14:52:06.226Z,50.64
2017-09-21T14:53:15.245Z,50.54
2017-09-21T14:54:23.910Z,50.93
2017-09-21T14:55:32.580Z,50.64
2017-09-21T14:56:41.558Z,50.84
2017-09-21T14:57:51.156Z,50.84